sensor_id;sensor_type;location;lat;lon;timestamp;P1;durP1;ratioP1;P2;durP2;ratioP2
1336;SDS011;662;48.814;9.318;2022-12-20T00:00:25;28.10;;;22.80;;
1336;SDS011;662;48.814;9.318;2022-12-20T00:02:51;29.77;;;24.57;;
1336;SDS011;662;48.814;9.318;2022-12-20T00:05:17;30.83;;;23.37;;
1336;SDS011;662;48.814;9.318;2022-12-20T00:07:42;30.73;;;22.07;;
1336;SDS011;662;48.814;9.318;2022-12-20T00:10:08;30.57;;;22.93;;
1336;SDS011;662;48.814;9.318;2022-12-20T00:12:34;32.20;;;22.30;;
1336;SDS011;662;48.814;9.318;2022-12-20T00:14:59;32.17;;;21.17;;
1336;SDS011;662;48.814;9.318;2022-12-20T00:17:25;32.00;;;21.73;;
1336;SDS011;662;48.814;9.318;2022-12-20T00:19:51;30.77;;;22.53;;
1336;SDS011;662;48.814;9.318;2022-12-20T00:22:16;29.53;;;22.07;;
1336;SDS011;662;48.814;9.318;2022-12-20T00:24:42;32.07;;;22.47;;
1336;SDS011;662;48.814;9.318;2022-12-20T00:27:07;32.97;;;19.87;;
1336;SDS011;662;48.814;9.318;2022-12-20T00:29:33;28.20;;;22.03;;
1336;SDS011;662;48.814;9.318;2022-12-20T00:31:59;29.47;;;22.97;;
1336;SDS011;662;48.814;9.318;2022-12-20T00:34:25;29.77;;;21.83;;
1336;SDS011;662;48.814;9.318;2022-12-20T00:36:50;30.30;;;23.03;;
1336;SDS011;662;48.814;9.318;2022-12-20T00:39:16;30.03;;;22.57;;
1336;SDS011;662;48.814;9.318;2022-12-20T00:41:42;29.20;;;21.97;;
1336;SDS011;662;48.814;9.318;2022-12-20T00:44:07;35.27;;;22.33;;
1336;SDS011;662;48.814;9.318;2022-12-20T00:46:33;31.97;;;22.57;;
1336;SDS011;662;48.814;9.318;2022-12-20T00:48:59;29.73;;;22.37;;
1336;SDS011;662;48.814;9.318;2022-12-20T00:51:26;30.10;;;21.90;;
1336;SDS011;662;48.814;9.318;2022-12-20T00:53:53;29.07;;;21.77;;
1336;SDS011;662;48.814;9.318;2022-12-20T00:56:19;34.10;;;23.03;;
1336;SDS011;662;48.814;9.318;2022-12-20T00:58:45;29.50;;;22.33;;
1336;SDS011;662;48.814;9.318;2022-12-20T01:01:15;32.00;;;23.07;;
1336;SDS011;662;48.814;9.318;2022-12-20T01:03:41;29.37;;;21.27;;
1336;SDS011;662;48.814;9.318;2022-12-20T01:06:08;27.47;;;21.67;;
1336;SDS011;662;48.814;9.318;2022-12-20T01:08:34;29.73;;;21.67;;
1336;SDS011;662;48.814;9.318;2022-12-20T01:11:04;27.37;;;21.47;;
1336;SDS011;662;48.814;9.318;2022-12-20T01:13:32;31.60;;;21.30;;
1336;SDS011;662;48.814;9.318;2022-12-20T01:16:07;30.10;;;21.67;;
1336;SDS011;662;48.814;9.318;2022-12-20T01:18:36;27.60;;;22.20;;
1336;SDS011;662;48.814;9.318;2022-12-20T01:21:02;28.90;;;21.90;;
1336;SDS011;662;48.814;9.318;2022-12-20T01:23:30;28.97;;;21.00;;
1336;SDS011;662;48.814;9.318;2022-12-20T01:25:56;32.30;;;22.33;;
1336;SDS011;662;48.814;9.318;2022-12-20T01:28:23;29.23;;;21.70;;
1336;SDS011;662;48.814;9.318;2022-12-20T01:30:49;29.60;;;20.47;;
1336;SDS011;662;48.814;9.318;2022-12-20T01:33:14;28.93;;;20.60;;
1336;SDS011;662;48.814;9.318;2022-12-20T01:35:40;29.20;;;21.10;;
1336;SDS011;662;48.814;9.318;2022-12-20T01:38:06;26.13;;;20.40;;
1336;SDS011;662;48.814;9.318;2022-12-20T01:40:31;29.00;;;21.70;;
1336;SDS011;662;48.814;9.318;2022-12-20T01:42:57;28.83;;;21.90;;
1336;SDS011;662;48.814;9.318;2022-12-20T01:45:27;26.80;;;19.50;;
1336;SDS011;662;48.814;9.318;2022-12-20T01:47:54;28.47;;;21.77;;
1336;SDS011;662;48.814;9.318;2022-12-20T01:50:22;28.73;;;20.90;;
1336;SDS011;662;48.814;9.318;2022-12-20T01:52:49;28.87;;;22.07;;
1336;SDS011;662;48.814;9.318;2022-12-20T01:55:17;25.03;;;19.70;;
1336;SDS011;662;48.814;9.318;2022-12-20T01:57:48;28.17;;;21.40;;
1336;SDS011;662;48.814;9.318;2022-12-20T02:00:15;29.50;;;21.17;;
1336;SDS011;662;48.814;9.318;2022-12-20T02:02:42;28.00;;;20.37;;
1336;SDS011;662;48.814;9.318;2022-12-20T02:05:10;26.80;;;20.57;;
1336;SDS011;662;48.814;9.318;2022-12-20T02:07:38;31.33;;;21.90;;
1336;SDS011;662;48.814;9.318;2022-12-20T02:10:06;28.03;;;21.20;;
1336;SDS011;662;48.814;9.318;2022-12-20T02:12:37;28.30;;;21.43;;
1336;SDS011;662;48.814;9.318;2022-12-20T02:15:11;31.37;;;22.60;;
1336;SDS011;662;48.814;9.318;2022-12-20T02:23:45;30.13;;;21.30;;
1336;SDS011;662;48.814;9.318;2022-12-20T02:28:59;26.93;;;19.80;;
1336;SDS011;662;48.814;9.318;2022-12-20T02:31:37;26.27;;;19.60;;
1336;SDS011;662;48.814;9.318;2022-12-20T02:34:06;25.43;;;20.00;;
1336;SDS011;662;48.814;9.318;2022-12-20T02:36:34;28.77;;;21.07;;
1336;SDS011;662;48.814;9.318;2022-12-20T02:39:00;26.50;;;19.70;;
1336;SDS011;662;48.814;9.318;2022-12-20T02:41:28;27.57;;;21.60;;
1336;SDS011;662;48.814;9.318;2022-12-20T02:44:00;30.50;;;23.00;;
1336;SDS011;662;48.814;9.318;2022-12-20T02:46:48;28.27;;;23.73;;
1336;SDS011;662;48.814;9.318;2022-12-20T02:49:17;28.27;;;22.50;;
1336;SDS011;662;48.814;9.318;2022-12-20T02:51:46;31.60;;;23.33;;
1336;SDS011;662;48.814;9.318;2022-12-20T02:54:15;27.50;;;21.23;;
1336;SDS011;662;48.814;9.318;2022-12-20T02:56:46;27.17;;;20.17;;
1336;SDS011;662;48.814;9.318;2022-12-20T02:59:27;27.73;;;21.23;;
1336;SDS011;662;48.814;9.318;2022-12-20T03:01:58;24.40;;;19.30;;
1336;SDS011;662;48.814;9.318;2022-12-20T03:04:25;28.27;;;21.20;;
1336;SDS011;662;48.814;9.318;2022-12-20T03:07:00;28.07;;;20.90;;
1336;SDS011;662;48.814;9.318;2022-12-20T03:09:31;25.23;;;20.10;;
1336;SDS011;662;48.814;9.318;2022-12-20T03:11:59;26.00;;;20.40;;
1336;SDS011;662;48.814;9.318;2022-12-20T03:14:24;23.20;;;19.10;;
1336;SDS011;662;48.814;9.318;2022-12-20T03:16:50;26.43;;;20.47;;
1336;SDS011;662;48.814;9.318;2022-12-20T03:19:16;26.77;;;19.80;;
1336;SDS011;662;48.814;9.318;2022-12-20T03:21:42;27.17;;;20.57;;
1336;SDS011;662;48.814;9.318;2022-12-20T03:24:08;28.37;;;19.63;;
1336;SDS011;662;48.814;9.318;2022-12-20T03:26:35;28.80;;;21.70;;
1336;SDS011;662;48.814;9.318;2022-12-20T03:29:01;25.40;;;19.90;;
1336;SDS011;662;48.814;9.318;2022-12-20T03:31:27;23.50;;;18.50;;
1336;SDS011;662;48.814;9.318;2022-12-20T03:33:53;32.30;;;20.53;;
1336;SDS011;662;48.814;9.318;2022-12-20T03:36:19;27.13;;;19.70;;
1336;SDS011;662;48.814;9.318;2022-12-20T03:38:48;28.30;;;20.80;;
1336;SDS011;662;48.814;9.318;2022-12-20T03:41:14;28.93;;;20.50;;
1336;SDS011;662;48.814;9.318;2022-12-20T03:43:39;25.50;;;20.33;;
1336;SDS011;662;48.814;9.318;2022-12-20T03:46:05;26.17;;;20.13;;
1336;SDS011;662;48.814;9.318;2022-12-20T03:48:31;25.90;;;20.10;;
1336;SDS011;662;48.814;9.318;2022-12-20T03:50:56;26.60;;;20.77;;
1336;SDS011;662;48.814;9.318;2022-12-20T03:53:22;29.23;;;20.57;;
1336;SDS011;662;48.814;9.318;2022-12-20T03:55:47;24.37;;;19.90;;
1336;SDS011;662;48.814;9.318;2022-12-20T03:58:13;30.63;;;21.27;;
1336;SDS011;662;48.814;9.318;2022-12-20T04:00:39;30.83;;;21.53;;
1336;SDS011;662;48.814;9.318;2022-12-20T04:03:05;27.80;;;20.70;;
1336;SDS011;662;48.814;9.318;2022-12-20T04:05:30;26.70;;;20.90;;
1336;SDS011;662;48.814;9.318;2022-12-20T04:07:56;28.87;;;21.73;;
1336;SDS011;662;48.814;9.318;2022-12-20T04:10:22;24.67;;;20.53;;
1336;SDS011;662;48.814;9.318;2022-12-20T04:12:47;25.07;;;21.67;;
1336;SDS011;662;48.814;9.318;2022-12-20T04:15:13;23.37;;;19.80;;
1336;SDS011;662;48.814;9.318;2022-12-20T04:17:38;28.17;;;20.33;;
1336;SDS011;662;48.814;9.318;2022-12-20T04:20:05;25.67;;;20.60;;
1336;SDS011;662;48.814;9.318;2022-12-20T04:22:49;30.87;;;21.60;;
1336;SDS011;662;48.814;9.318;2022-12-20T04:25:17;30.53;;;21.60;;
1336;SDS011;662;48.814;9.318;2022-12-20T04:27:44;28.47;;;21.17;;
1336;SDS011;662;48.814;9.318;2022-12-20T04:30:10;27.10;;;20.70;;
1336;SDS011;662;48.814;9.318;2022-12-20T04:32:36;30.03;;;19.97;;
1336;SDS011;662;48.814;9.318;2022-12-20T04:35:03;23.97;;;19.50;;
1336;SDS011;662;48.814;9.318;2022-12-20T04:37:29;31.57;;;21.50;;
1336;SDS011;662;48.814;9.318;2022-12-20T04:39:55;31.60;;;20.60;;
1336;SDS011;662;48.814;9.318;2022-12-20T04:42:22;27.40;;;20.60;;
1336;SDS011;662;48.814;9.318;2022-12-20T04:44:48;30.67;;;21.37;;
1336;SDS011;662;48.814;9.318;2022-12-20T04:47:14;27.80;;;20.50;;
1336;SDS011;662;48.814;9.318;2022-12-20T04:49:39;26.40;;;20.83;;
1336;SDS011;662;48.814;9.318;2022-12-20T04:52:05;26.70;;;19.87;;
1336;SDS011;662;48.814;9.318;2022-12-20T04:54:49;37.07;;;23.77;;
1336;SDS011;662;48.814;9.318;2022-12-20T04:57:15;28.40;;;21.30;;
1336;SDS011;662;48.814;9.318;2022-12-20T04:59:40;30.97;;;22.07;;
1336;SDS011;662;48.814;9.318;2022-12-20T05:02:06;26.83;;;20.40;;
1336;SDS011;662;48.814;9.318;2022-12-20T05:04:32;30.83;;;22.93;;
1336;SDS011;662;48.814;9.318;2022-12-20T05:06:57;31.63;;;23.70;;
1336;SDS011;662;48.814;9.318;2022-12-20T05:09:23;28.60;;;22.20;;
1336;SDS011;662;48.814;9.318;2022-12-20T05:11:49;34.50;;;22.53;;
1336;SDS011;662;48.814;9.318;2022-12-20T05:14:14;30.20;;;20.80;;
1336;SDS011;662;48.814;9.318;2022-12-20T05:16:40;26.87;;;21.87;;
1336;SDS011;662;48.814;9.318;2022-12-20T05:19:05;30.70;;;21.53;;
1336;SDS011;662;48.814;9.318;2022-12-20T05:21:31;27.37;;;21.10;;
1336;SDS011;662;48.814;9.318;2022-12-20T05:24:15;29.40;;;20.27;;
1336;SDS011;662;48.814;9.318;2022-12-20T05:27:00;28.53;;;20.73;;
1336;SDS011;662;48.814;9.318;2022-12-20T05:29:26;35.63;;;22.53;;
1336;SDS011;662;48.814;9.318;2022-12-20T05:31:51;31.33;;;22.00;;
1336;SDS011;662;48.814;9.318;2022-12-20T05:34:17;34.53;;;21.00;;
1336;SDS011;662;48.814;9.318;2022-12-20T05:36:43;25.60;;;20.60;;
1336;SDS011;662;48.814;9.318;2022-12-20T05:39:09;26.00;;;20.47;;
1336;SDS011;662;48.814;9.318;2022-12-20T05:41:35;26.60;;;19.73;;
1336;SDS011;662;48.814;9.318;2022-12-20T05:44:02;31.30;;;21.60;;
1336;SDS011;662;48.814;9.318;2022-12-20T05:46:28;28.70;;;20.90;;
1336;SDS011;662;48.814;9.318;2022-12-20T05:48:53;24.23;;;19.40;;
1336;SDS011;662;48.814;9.318;2022-12-20T05:51:19;27.80;;;20.70;;
1336;SDS011;662;48.814;9.318;2022-12-20T05:53:45;30.33;;;21.53;;
1336;SDS011;662;48.814;9.318;2022-12-20T05:56:11;23.23;;;20.77;;
1336;SDS011;662;48.814;9.318;2022-12-20T05:58:36;28.13;;;21.23;;
1336;SDS011;662;48.814;9.318;2022-12-20T06:01:04;28.93;;;22.03;;
1336;SDS011;662;48.814;9.318;2022-12-20T06:03:31;27.07;;;21.03;;
1336;SDS011;662;48.814;9.318;2022-12-20T06:05:57;28.27;;;20.40;;
1336;SDS011;662;48.814;9.318;2022-12-20T06:08:23;24.20;;;19.63;;
1336;SDS011;662;48.814;9.318;2022-12-20T06:10:49;30.10;;;22.53;;
1336;SDS011;662;48.814;9.318;2022-12-20T06:13:15;31.80;;;22.53;;
1336;SDS011;662;48.814;9.318;2022-12-20T06:15:41;28.90;;;20.57;;
1336;SDS011;662;48.814;9.318;2022-12-20T06:18:07;25.70;;;20.17;;
1336;SDS011;662;48.814;9.318;2022-12-20T06:20:33;27.90;;;20.60;;
1336;SDS011;662;48.814;9.318;2022-12-20T06:22:59;28.43;;;20.57;;
1336;SDS011;662;48.814;9.318;2022-12-20T06:25:25;27.87;;;20.77;;
1336;SDS011;662;48.814;9.318;2022-12-20T06:27:51;27.93;;;21.00;;
1336;SDS011;662;48.814;9.318;2022-12-20T06:30:17;29.30;;;21.27;;
1336;SDS011;662;48.814;9.318;2022-12-20T06:32:43;28.43;;;21.70;;
1336;SDS011;662;48.814;9.318;2022-12-20T06:35:09;24.87;;;19.67;;
1336;SDS011;662;48.814;9.318;2022-12-20T06:37:35;27.27;;;20.30;;
1336;SDS011;662;48.814;9.318;2022-12-20T06:40:01;26.97;;;20.47;;
1336;SDS011;662;48.814;9.318;2022-12-20T06:42:29;29.90;;;20.80;;
1336;SDS011;662;48.814;9.318;2022-12-20T06:44:56;26.20;;;19.93;;
1336;SDS011;662;48.814;9.318;2022-12-20T06:47:22;27.50;;;20.33;;
1336;SDS011;662;48.814;9.318;2022-12-20T06:49:47;33.17;;;21.23;;
1336;SDS011;662;48.814;9.318;2022-12-20T06:52:13;26.27;;;20.30;;
1336;SDS011;662;48.814;9.318;2022-12-20T06:54:38;31.73;;;20.23;;
1336;SDS011;662;48.814;9.318;2022-12-20T06:57:04;22.63;;;18.47;;
1336;SDS011;662;48.814;9.318;2022-12-20T06:59:31;27.70;;;20.43;;
1336;SDS011;662;48.814;9.318;2022-12-20T07:01:56;28.57;;;20.20;;
1336;SDS011;662;48.814;9.318;2022-12-20T07:04:22;28.97;;;23.13;;
1336;SDS011;662;48.814;9.318;2022-12-20T07:06:47;30.53;;;23.00;;
1336;SDS011;662;48.814;9.318;2022-12-20T07:09:13;29.57;;;21.50;;
1336;SDS011;662;48.814;9.318;2022-12-20T07:11:39;29.27;;;22.67;;
1336;SDS011;662;48.814;9.318;2022-12-20T07:14:07;27.17;;;21.27;;
1336;SDS011;662;48.814;9.318;2022-12-20T07:16:33;24.13;;;19.47;;
1336;SDS011;662;48.814;9.318;2022-12-20T07:19:00;28.40;;;21.30;;
1336;SDS011;662;48.814;9.318;2022-12-20T07:21:25;26.37;;;21.10;;
1336;SDS011;662;48.814;9.318;2022-12-20T07:23:51;25.23;;;20.33;;
1336;SDS011;662;48.814;9.318;2022-12-20T07:26:18;26.33;;;20.17;;
1336;SDS011;662;48.814;9.318;2022-12-20T07:28:44;31.03;;;21.07;;
1336;SDS011;662;48.814;9.318;2022-12-20T07:31:09;25.90;;;19.97;;
1336;SDS011;662;48.814;9.318;2022-12-20T07:33:35;27.47;;;20.90;;
1336;SDS011;662;48.814;9.318;2022-12-20T07:36:02;29.03;;;21.10;;
1336;SDS011;662;48.814;9.318;2022-12-20T07:38:32;35.27;;;22.00;;
1336;SDS011;662;48.814;9.318;2022-12-20T07:40:59;32.53;;;21.60;;
1336;SDS011;662;48.814;9.318;2022-12-20T07:43:25;30.40;;;21.13;;
1336;SDS011;662;48.814;9.318;2022-12-20T07:45:55;31.43;;;22.20;;
1336;SDS011;662;48.814;9.318;2022-12-20T07:48:21;29.77;;;21.40;;
1336;SDS011;662;48.814;9.318;2022-12-20T07:50:48;26.97;;;20.00;;
1336;SDS011;662;48.814;9.318;2022-12-20T07:53:17;29.23;;;20.03;;
1336;SDS011;662;48.814;9.318;2022-12-20T07:55:44;23.80;;;18.70;;
1336;SDS011;662;48.814;9.318;2022-12-20T07:58:10;25.03;;;19.00;;
1336;SDS011;662;48.814;9.318;2022-12-20T08:00:38;26.20;;;19.10;;
1336;SDS011;662;48.814;9.318;2022-12-20T08:05:31;26.60;;;18.87;;
1336;SDS011;662;48.814;9.318;2022-12-20T08:07:59;27.40;;;19.00;;
1336;SDS011;662;48.814;9.318;2022-12-20T08:10:27;23.80;;;19.30;;
1336;SDS011;662;48.814;9.318;2022-12-20T08:12:54;25.60;;;19.30;;
1336;SDS011;662;48.814;9.318;2022-12-20T08:15:20;27.07;;;18.40;;
1336;SDS011;662;48.814;9.318;2022-12-20T08:17:47;27.37;;;19.00;;
1336;SDS011;662;48.814;9.318;2022-12-20T08:20:13;26.77;;;19.17;;
1336;SDS011;662;48.814;9.318;2022-12-20T08:22:39;21.13;;;17.53;;
1336;SDS011;662;48.814;9.318;2022-12-20T08:25:05;22.93;;;17.77;;
1336;SDS011;662;48.814;9.318;2022-12-20T08:27:31;19.07;;;15.83;;
1336;SDS011;662;48.814;9.318;2022-12-20T08:29:57;23.17;;;17.67;;
1336;SDS011;662;48.814;9.318;2022-12-20T08:32:23;26.27;;;18.10;;
1336;SDS011;662;48.814;9.318;2022-12-20T08:34:49;21.33;;;16.67;;
1336;SDS011;662;48.814;9.318;2022-12-20T08:37:16;21.90;;;15.73;;
1336;SDS011;662;48.814;9.318;2022-12-20T08:39:41;16.50;;;13.87;;
1336;SDS011;662;48.814;9.318;2022-12-20T08:42:07;20.23;;;16.13;;
1336;SDS011;662;48.814;9.318;2022-12-20T08:44:33;20.30;;;16.30;;
1336;SDS011;662;48.814;9.318;2022-12-20T08:46:59;20.97;;;16.63;;
1336;SDS011;662;48.814;9.318;2022-12-20T08:49:24;25.90;;;19.57;;
1336;SDS011;662;48.814;9.318;2022-12-20T08:51:50;21.40;;;18.07;;
1336;SDS011;662;48.814;9.318;2022-12-20T08:54:15;20.20;;;17.50;;
1336;SDS011;662;48.814;9.318;2022-12-20T08:56:41;18.87;;;15.50;;
1336;SDS011;662;48.814;9.318;2022-12-20T08:59:07;24.57;;;18.20;;
1336;SDS011;662;48.814;9.318;2022-12-20T09:01:33;25.10;;;16.70;;
1336;SDS011;662;48.814;9.318;2022-12-20T09:03:58;21.10;;;16.30;;
1336;SDS011;662;48.814;9.318;2022-12-20T09:06:24;18.70;;;15.07;;
1336;SDS011;662;48.814;9.318;2022-12-20T09:08:50;25.00;;;15.30;;
1336;SDS011;662;48.814;9.318;2022-12-20T09:13:42;19.40;;;14.50;;
1336;SDS011;662;48.814;9.318;2022-12-20T09:16:10;18.00;;;14.67;;
1336;SDS011;662;48.814;9.318;2022-12-20T09:18:37;22.67;;;15.30;;
1336;SDS011;662;48.814;9.318;2022-12-20T09:21:04;17.03;;;14.40;;
1336;SDS011;662;48.814;9.318;2022-12-20T09:23:30;17.57;;;15.03;;
1336;SDS011;662;48.814;9.318;2022-12-20T09:26:00;23.23;;;16.03;;
1336;SDS011;662;48.814;9.318;2022-12-20T09:28:28;19.20;;;15.80;;
1336;SDS011;662;48.814;9.318;2022-12-20T09:30:57;21.50;;;15.77;;
1336;SDS011;662;48.814;9.318;2022-12-20T09:33:24;19.23;;;15.60;;
1336;SDS011;662;48.814;9.318;2022-12-20T09:35:50;19.00;;;15.23;;
1336;SDS011;662;48.814;9.318;2022-12-20T09:38:15;19.90;;;16.23;;
1336;SDS011;662;48.814;9.318;2022-12-20T09:40:45;22.40;;;17.10;;
1336;SDS011;662;48.814;9.318;2022-12-20T09:43:13;21.80;;;15.83;;
1336;SDS011;662;48.814;9.318;2022-12-20T09:45:40;26.20;;;17.33;;
1336;SDS011;662;48.814;9.318;2022-12-20T09:48:17;23.77;;;17.90;;
1336;SDS011;662;48.814;9.318;2022-12-20T09:53:14;26.97;;;18.10;;
1336;SDS011;662;48.814;9.318;2022-12-20T09:55:49;19.00;;;16.57;;
1336;SDS011;662;48.814;9.318;2022-12-20T10:00:54;17.97;;;13.90;;
1336;SDS011;662;48.814;9.318;2022-12-20T10:03:23;16.10;;;14.13;;
1336;SDS011;662;48.814;9.318;2022-12-20T10:05:53;20.20;;;14.30;;
1336;SDS011;662;48.814;9.318;2022-12-20T10:19:43;22.83;;;15.57;;
1336;SDS011;662;48.814;9.318;2022-12-20T10:22:36;18.43;;;14.93;;
1336;SDS011;662;48.814;9.318;2022-12-20T10:25:17;22.43;;;15.10;;
1336;SDS011;662;48.814;9.318;2022-12-20T10:27:45;21.97;;;16.67;;
1336;SDS011;662;48.814;9.318;2022-12-20T10:30:14;22.27;;;16.33;;
1336;SDS011;662;48.814;9.318;2022-12-20T10:32:46;18.73;;;14.53;;
1336;SDS011;662;48.814;9.318;2022-12-20T10:38:07;18.90;;;14.40;;
1336;SDS011;662;48.814;9.318;2022-12-20T10:40:47;25.30;;;16.30;;
1336;SDS011;662;48.814;9.318;2022-12-20T10:43:25;16.13;;;13.67;;
1336;SDS011;662;48.814;9.318;2022-12-20T10:46:05;17.63;;;14.43;;
1336;SDS011;662;48.814;9.318;2022-12-20T10:48:36;17.63;;;13.53;;
1336;SDS011;662;48.814;9.318;2022-12-20T11:01:42;18.83;;;14.53;;
1336;SDS011;662;48.814;9.318;2022-12-20T11:04:27;15.43;;;13.70;;
1336;SDS011;662;48.814;9.318;2022-12-20T11:06:59;17.80;;;14.30;;
1336;SDS011;662;48.814;9.318;2022-12-20T11:09:30;17.23;;;14.63;;
1336;SDS011;662;48.814;9.318;2022-12-20T11:12:02;18.87;;;14.67;;
1336;SDS011;662;48.814;9.318;2022-12-20T11:14:40;21.77;;;15.30;;
1336;SDS011;662;48.814;9.318;2022-12-20T11:20:03;18.50;;;14.60;;
1336;SDS011;662;48.814;9.318;2022-12-20T11:23:06;21.03;;;15.33;;
1336;SDS011;662;48.814;9.318;2022-12-20T11:26:00;21.73;;;15.50;;
1336;SDS011;662;48.814;9.318;2022-12-20T11:34:55;20.73;;;15.77;;
1336;SDS011;662;48.814;9.318;2022-12-20T11:37:30;19.03;;;15.70;;
1336;SDS011;662;48.814;9.318;2022-12-20T11:40:19;19.40;;;15.77;;
1336;SDS011;662;48.814;9.318;2022-12-20T11:43:03;17.97;;;14.90;;
1336;SDS011;662;48.814;9.318;2022-12-20T11:45:41;22.63;;;17.40;;
1336;SDS011;662;48.814;9.318;2022-12-20T11:51:25;19.83;;;15.57;;
1336;SDS011;662;48.814;9.318;2022-12-20T11:56:51;20.23;;;16.03;;
1336;SDS011;662;48.814;9.318;2022-12-20T12:02:10;17.80;;;13.73;;
1336;SDS011;662;48.814;9.318;2022-12-20T12:04:53;17.93;;;14.40;;
1336;SDS011;662;48.814;9.318;2022-12-20T12:07:32;20.10;;;13.80;;
1336;SDS011;662;48.814;9.318;2022-12-20T12:10:05;17.93;;;15.93;;
1336;SDS011;662;48.814;9.318;2022-12-20T12:12:44;17.67;;;14.17;;
1336;SDS011;662;48.814;9.318;2022-12-20T12:23:38;19.90;;;15.40;;
1336;SDS011;662;48.814;9.318;2022-12-20T12:26:19;20.10;;;15.47;;
1336;SDS011;662;48.814;9.318;2022-12-20T12:28:51;22.57;;;16.70;;
1336;SDS011;662;48.814;9.318;2022-12-20T12:31:42;19.43;;;17.43;;
1336;SDS011;662;48.814;9.318;2022-12-20T12:39:43;26.90;;;20.13;;
1336;SDS011;662;48.814;9.318;2022-12-20T12:45:40;21.43;;;19.20;;
1336;SDS011;662;48.814;9.318;2022-12-20T12:50:47;21.27;;;17.90;;
1336;SDS011;662;48.814;9.318;2022-12-20T12:53:20;24.63;;;19.03;;
1336;SDS011;662;48.814;9.318;2022-12-20T12:55:58;25.30;;;18.90;;
1336;SDS011;662;48.814;9.318;2022-12-20T13:11:51;21.00;;;16.90;;
1336;SDS011;662;48.814;9.318;2022-12-20T13:16:53;19.27;;;14.40;;
1336;SDS011;662;48.814;9.318;2022-12-20T13:24:56;18.20;;;13.20;;
1336;SDS011;662;48.814;9.318;2022-12-20T13:27:30;14.97;;;13.30;;
1336;SDS011;662;48.814;9.318;2022-12-20T13:43:15;19.67;;;14.13;;
1336;SDS011;662;48.814;9.318;2022-12-20T13:45:54;15.57;;;13.67;;
1336;SDS011;662;48.814;9.318;2022-12-20T13:48:32;20.30;;;13.27;;
1336;SDS011;662;48.814;9.318;2022-12-20T13:51:18;16.60;;;13.27;;
1336;SDS011;662;48.814;9.318;2022-12-20T13:53:58;17.00;;;13.50;;
1336;SDS011;662;48.814;9.318;2022-12-20T13:58:51;18.23;;;13.10;;
1336;SDS011;662;48.814;9.318;2022-12-20T14:01:22;17.33;;;14.40;;
1336;SDS011;662;48.814;9.318;2022-12-20T14:03:49;16.07;;;14.37;;
1336;SDS011;662;48.814;9.318;2022-12-20T14:06:17;16.83;;;14.43;;
1336;SDS011;662;48.814;9.318;2022-12-20T14:08:48;17.07;;;14.70;;
1336;SDS011;662;48.814;9.318;2022-12-20T14:11:19;16.53;;;14.33;;
1336;SDS011;662;48.814;9.318;2022-12-20T14:14:02;18.13;;;15.40;;
1336;SDS011;662;48.814;9.318;2022-12-20T14:16:29;18.17;;;14.70;;
1336;SDS011;662;48.814;9.318;2022-12-20T14:21:22;17.33;;;15.40;;
1336;SDS011;662;48.814;9.318;2022-12-20T14:23:49;15.40;;;13.43;;
1336;SDS011;662;48.814;9.318;2022-12-20T14:26:18;17.00;;;13.63;;
1336;SDS011;662;48.814;9.318;2022-12-20T14:28:53;16.87;;;14.77;;
1336;SDS011;662;48.814;9.318;2022-12-20T14:31:24;17.00;;;14.50;;
1336;SDS011;662;48.814;9.318;2022-12-20T14:34:03;16.20;;;13.20;;
1336;SDS011;662;48.814;9.318;2022-12-20T14:36:29;14.27;;;12.60;;
1336;SDS011;662;48.814;9.318;2022-12-20T14:38:55;16.60;;;13.57;;
1336;SDS011;662;48.814;9.318;2022-12-20T14:41:39;16.50;;;13.30;;
1336;SDS011;662;48.814;9.318;2022-12-20T14:44:19;19.70;;;15.30;;
1336;SDS011;662;48.814;9.318;2022-12-20T14:46:49;15.57;;;13.17;;
1336;SDS011;662;48.814;9.318;2022-12-20T14:54:49;20.70;;;16.27;;
1336;SDS011;662;48.814;9.318;2022-12-20T14:57:21;21.43;;;16.60;;
1336;SDS011;662;48.814;9.318;2022-12-20T15:08:59;19.00;;;16.77;;
1336;SDS011;662;48.814;9.318;2022-12-20T15:16:01;25.17;;;18.53;;
1336;SDS011;662;48.814;9.318;2022-12-20T15:18:28;22.43;;;19.60;;
1336;SDS011;662;48.814;9.318;2022-12-20T15:20:59;23.00;;;19.23;;
1336;SDS011;662;48.814;9.318;2022-12-20T15:23:29;27.43;;;19.20;;
1336;SDS011;662;48.814;9.318;2022-12-20T15:25:55;20.27;;;18.10;;
1336;SDS011;662;48.814;9.318;2022-12-20T15:28:22;21.43;;;18.40;;
1336;SDS011;662;48.814;9.318;2022-12-20T15:30:49;23.57;;;17.63;;
1336;SDS011;662;48.814;9.318;2022-12-20T15:33:17;17.97;;;15.63;;
1336;SDS011;662;48.814;9.318;2022-12-20T15:35:46;21.57;;;15.80;;
1336;SDS011;662;48.814;9.318;2022-12-20T15:38:13;16.03;;;13.93;;
1336;SDS011;662;48.814;9.318;2022-12-20T15:40:44;19.30;;;15.67;;
1336;SDS011;662;48.814;9.318;2022-12-20T15:43:12;23.43;;;18.37;;
1336;SDS011;662;48.814;9.318;2022-12-20T15:45:39;18.23;;;16.30;;
1336;SDS011;662;48.814;9.318;2022-12-20T15:48:10;22.20;;;16.20;;
1336;SDS011;662;48.814;9.318;2022-12-20T15:50:47;22.23;;;16.30;;
1336;SDS011;662;48.814;9.318;2022-12-20T15:53:18;22.00;;;16.97;;
1336;SDS011;662;48.814;9.318;2022-12-20T15:55:51;19.40;;;16.30;;
1336;SDS011;662;48.814;9.318;2022-12-20T15:58:19;23.77;;;17.20;;
1336;SDS011;662;48.814;9.318;2022-12-20T16:00:45;23.70;;;17.80;;
1336;SDS011;662;48.814;9.318;2022-12-20T16:03:12;23.90;;;17.67;;
1336;SDS011;662;48.814;9.318;2022-12-20T16:05:40;24.50;;;18.27;;
1336;SDS011;662;48.814;9.318;2022-12-20T16:08:06;27.17;;;19.97;;
1336;SDS011;662;48.814;9.318;2022-12-20T16:10:32;19.00;;;15.67;;
1336;SDS011;662;48.814;9.318;2022-12-20T16:12:57;18.50;;;15.40;;
1336;SDS011;662;48.814;9.318;2022-12-20T16:15:23;20.20;;;15.93;;
1336;SDS011;662;48.814;9.318;2022-12-20T16:17:49;19.80;;;16.13;;
1336;SDS011;662;48.814;9.318;2022-12-20T16:20:15;24.50;;;17.13;;
1336;SDS011;662;48.814;9.318;2022-12-20T16:22:41;19.37;;;16.60;;
1336;SDS011;662;48.814;9.318;2022-12-20T16:25:13;20.80;;;17.00;;
1336;SDS011;662;48.814;9.318;2022-12-20T16:27:48;23.77;;;18.37;;
1336;SDS011;662;48.814;9.318;2022-12-20T16:30:14;27.80;;;18.07;;
1336;SDS011;662;48.814;9.318;2022-12-20T16:32:40;21.50;;;18.07;;
1336;SDS011;662;48.814;9.318;2022-12-20T16:35:08;22.00;;;17.27;;
1336;SDS011;662;48.814;9.318;2022-12-20T16:37:46;20.50;;;16.10;;
1336;SDS011;662;48.814;9.318;2022-12-20T16:40:12;17.70;;;15.70;;
1336;SDS011;662;48.814;9.318;2022-12-20T16:42:39;23.90;;;15.60;;
1336;SDS011;662;48.814;9.318;2022-12-20T16:45:05;19.53;;;14.57;;
1336;SDS011;662;48.814;9.318;2022-12-20T16:47:31;14.70;;;13.07;;
1336;SDS011;662;48.814;9.318;2022-12-20T16:49:56;15.60;;;12.77;;
1336;SDS011;662;48.814;9.318;2022-12-20T16:52:22;16.53;;;14.80;;
1336;SDS011;662;48.814;9.318;2022-12-20T16:54:48;15.40;;;12.50;;
1336;SDS011;662;48.814;9.318;2022-12-20T16:57:14;16.80;;;15.00;;
1336;SDS011;662;48.814;9.318;2022-12-20T16:59:39;23.80;;;16.30;;
1336;SDS011;662;48.814;9.318;2022-12-20T17:02:15;19.40;;;17.20;;
1336;SDS011;662;48.814;9.318;2022-12-20T17:04:49;22.90;;;19.37;;
1336;SDS011;662;48.814;9.318;2022-12-20T17:07:14;19.70;;;17.60;;
1336;SDS011;662;48.814;9.318;2022-12-20T17:09:40;23.47;;;17.30;;
1336;SDS011;662;48.814;9.318;2022-12-20T17:12:13;23.03;;;18.90;;
1336;SDS011;662;48.814;9.318;2022-12-20T17:14:40;19.23;;;17.00;;
1336;SDS011;662;48.814;9.318;2022-12-20T17:17:07;23.43;;;17.87;;
1336;SDS011;662;48.814;9.318;2022-12-20T17:19:32;18.80;;;15.73;;
1336;SDS011;662;48.814;9.318;2022-12-20T17:21:59;19.90;;;15.90;;
1336;SDS011;662;48.814;9.318;2022-12-20T17:24:25;19.90;;;17.50;;
1336;SDS011;662;48.814;9.318;2022-12-20T17:26:51;20.13;;;15.70;;
1336;SDS011;662;48.814;9.318;2022-12-20T17:29:16;22.60;;;16.30;;